Time;durP1;ratioP1;P1;durP2;ratioP2;P2;SDS_P1;SDS_P2;PMS_P1;PMS_P2;Temp;Humidity;BMP_temperature;BMP_pressure;BME280_temperature;BME280_humidity;BME280_pressure;Samples;Min_cycle;Max_cycle;Signal;HPM_P1;HPM_P2
2022/08/08 00:01:03;;;;;;;1.98;1.85;;;19.80;99.90;;;;;;5095310;28;20224;-88
2022/08/08 00:03:46;;;;;;;2.22;2.10;;;19.80;99.90;;;;;;5094810;28;20265;-87
2022/08/08 00:06:33;;;;;;;1.75;1.65;;;19.80;99.90;;;;;;5094993;28;20208;-88
2022/08/08 00:09:08;;;;;;;2.53;2.33;;;19.70;99.90;;;;;;5095472;28;20211;-87
2022/08/08 00:11:47;;;;;;;4.07;1.95;;;19.70;99.90;;;;;;5093864;28;20220;-87
2022/08/08 00:14:44;;;;;;;2.55;2.05;;;19.70;99.90;;;;;;5094100;28;20201;-87
2022/08/08 00:17:35;;;;;;;3.13;2.35;;;19.70;99.90;;;;;;5094169;28;20278;-86
2022/08/08 00:20:31;;;;;;;2.45;1.67;;;19.70;99.90;;;;;;5093796;28;20224;-86
2022/08/08 00:23:06;;;;;;;2.28;2.17;;;19.70;99.90;;;;;;5094249;28;20204;-87
2022/08/08 00:25:38;;;;;;;2.50;2.38;;;19.60;99.90;;;;;;5093836;28;20224;-89
2022/08/08 00:28:24;;;;;;;2.00;1.90;;;19.70;99.90;;;;;;5093936;28;20250;-87
2022/08/08 00:31:08;;;;;;;2.25;2.05;;;19.70;99.90;;;;;;5093824;28;20229;-84
2022/08/08 00:37:01;;;;;;;2.30;2.10;;;19.60;99.90;;;;;;5071886;28;20208;-86
2022/08/08 00:39:44;;;;;;;2.72;2.17;;;19.60;99.90;;;;;;5093474;28;20197;-87
2022/08/08 00:42:55;;;;;;;4.13;2.13;;;19.70;99.90;;;;;;5093638;28;20214;-87
2022/08/08 00:46:03;;;;;;;2.03;1.92;;;19.60;99.90;;;;;;5093581;28;20224;-86
2022/08/08 00:49:06;;;;;;;2.63;2.42;;;19.60;99.90;;;;;;5093432;28;20200;-87
2022/08/08 00:52:17;;;;;;;1.85;1.75;;;19.50;99.90;;;;;;5092997;28;20232;-86
2022/08/08 00:55:19;;;;;;;4.13;2.22;;;19.40;99.90;;;;;;5093477;28;20266;-86
2022/08/08 00:58:49;;;;;;;2.13;1.92;;;19.40;99.90;;;;;;5093387;28;20214;-89
2022/08/08 01:01:30;;;;;;;2.03;1.92;;;19.40;99.90;;;;;;5057474;28;20220;-87
2022/08/08 01:04:45;;;;;;;1.98;1.88;;;19.40;99.90;;;;;;5093383;28;20212;-87
2022/08/08 01:08:07;;;;;;;4.30;2.05;;;19.40;99.90;;;;;;5080964;28;20200;-87
2022/08/08 01:11:22;;;;;;;1.70;1.60;;;19.40;99.90;;;;;;5092906;28;20228;-87
2022/08/08 01:14:30;;;;;;;1.92;1.80;;;19.30;99.90;;;;;;5093066;28;20295;-87
2022/08/08 01:17:59;;;;;;;1.85;1.75;;;19.30;99.90;;;;;;5092927;28;20203;-88
2022/08/08 01:20:47;;;;;;;2.72;2.47;;;19.30;99.90;;;;;;5093063;28;20228;-87
2022/08/08 01:23:59;;;;;;;2.45;2.25;;;19.30;99.90;;;;;;5093192;28;20239;-87
2022/08/08 01:27:16;;;;;;;1.95;1.77;;;19.30;99.90;;;;;;5092962;28;20200;-87
2022/08/08 01:30:23;;;;;;;2.08;1.98;;;19.30;99.90;;;;;;5092844;28;20226;-88
2022/08/08 01:33:41;;;;;;;2.20;2.03;;;19.20;99.90;;;;;;5062182;28;20251;-87
2022/08/08 01:37:17;;;;;;;2.38;2.13;;;19.20;99.90;;;;;;5010868;28;20214;-87
2022/08/08 01:40:17;;;;;;;4.40;2.55;;;19.10;99.90;;;;;;5023231;28;20224;-89
2022/08/08 01:42:53;;;;;;;2.42;2.20;;;19.10;99.90;;;;;;5092962;28;20208;-88
2022/08/08 01:45:48;;;;;;;2.80;2.60;;;19.00;99.90;;;;;;5092442;28;20219;-86
2022/08/08 01:48:40;;;;;;;2.38;2.17;;;19.00;99.90;;;;;;5092682;28;20205;-86
2022/08/08 01:51:45;;;;;;;8.55;2.30;;;19.00;99.90;;;;;;5092898;28;20228;-87
2022/08/08 01:54:45;;;;;;;2.65;2.45;;;18.90;99.90;;;;;;5092605;28;20200;-87
2022/08/08 01:57:42;;;;;;;2.20;2.10;;;18.90;99.90;;;;;;5092455;28;20204;-87
2022/08/08 02:00:40;;;;;;;2.55;2.35;;;18.90;99.90;;;;;;5092502;28;20224;-87
2022/08/08 02:03:25;;;;;;;3.92;2.60;;;18.90;99.90;;;;;;5093211;28;20248;-87
2022/08/08 02:06:20;;;;;;;2.15;1.98;;;18.90;99.90;;;;;;5106460;28;20220;-87
2022/08/08 02:09:15;;;;;;;2.95;2.75;;;18.90;99.90;;;;;;5110970;28;20204;-87
2022/08/08 02:11:48;;;;;;;2.55;2.35;;;18.90;99.90;;;;;;5092697;28;20227;-86
2022/08/08 02:14:35;;;;;;;2.38;2.22;;;18.90;99.90;;;;;;5092767;28;20219;-88
2022/08/08 02:17:28;;;;;;;2.00;1.90;;;18.90;99.90;;;;;;5092184;28;20208;-87
2022/08/08 02:20:26;;;;;;;2.00;1.90;;;18.90;99.90;;;;;;5094073;28;20235;-87
2022/08/08 02:23:23;;;;;;;2.33;2.13;;;18.90;99.90;;;;;;5096441;28;20200;-87
2022/08/08 02:26:07;;;;;;;2.78;2.58;;;18.90;99.90;;;;;;5096311;28;20224;-87
2022/08/08 02:28:47;;;;;;;2.60;2.40;;;18.90;99.90;;;;;;5096043;28;20212;-86
2022/08/08 02:31:39;;;;;;;3.53;2.50;;;18.90;99.90;;;;;;5096197;28;20286;-87
2022/08/08 02:34:56;;;;;;;1.83;1.73;;;18.90;99.90;;;;;;5096097;28;20283;-87
2022/08/08 02:37:56;;;;;;;1.92;1.80;;;18.90;99.90;;;;;;5096502;28;20227;-87
2022/08/08 02:40:37;;;;;;;2.80;2.35;;;18.80;99.90;;;;;;5095950;28;20251;-87
2022/08/08 02:43:49;;;;;;;2.20;2.10;;;18.80;99.90;;;;;;5096044;28;20238;-86
2022/08/08 02:46:58;;;;;;;3.10;2.10;;;18.80;99.90;;;;;;5095667;28;20230;-86
2022/08/08 02:50:08;;;;;;;2.38;2.15;;;18.70;99.90;;;;;;5095913;28;20224;-86
2022/08/08 02:52:55;;;;;;;4.25;2.53;;;18.70;99.90;;;;;;5053695;28;20227;-89
2022/08/08 02:55:51;;;;;;;2.40;2.10;;;18.60;99.90;;;;;;5095593;28;20204;-88
2022/08/08 02:59:14;;;;;;;2.70;2.50;;;18.60;99.90;;;;;;5095532;28;20208;-88
2022/08/08 03:02:41;;;;;;;2.33;2.15;;;18.50;99.90;;;;;;5014880;28;20222;-88
2022/08/08 03:06:01;;;;;;;2.40;2.20;;;18.50;99.90;;;;;;5025600;28;20235;-88
2022/08/08 03:09:07;;;;;;;3.13;2.42;;;18.50;99.90;;;;;;5057580;28;20211;-88
2022/08/08 03:12:13;;;;;;;2.00;1.90;;;18.50;99.90;;;;;;5094982;28;20258;-86
2022/08/08 03:14:51;;;;;;;2.35;2.15;;;18.40;99.90;;;;;;5095695;28;20208;-88
2022/08/08 03:17:47;;;;;;;2.28;2.17;;;18.50;99.90;;;;;;5095434;28;20205;-86
2022/08/08 03:20:49;;;;;;;2.08;1.98;;;18.50;99.90;;;;;;5095265;28;20307;-86
2022/08/08 03:23:21;;;;;;;3.42;2.63;;;18.40;99.90;;;;;;5095234;28;20204;-88
2022/08/08 03:25:51;;;;;;;4.25;2.90;;;18.40;99.90;;;;;;5095134;28;20232;-86
2022/08/08 03:28:26;;;;;;;2.75;2.55;;;18.40;99.90;;;;;;5095003;28;20227;-87
2022/08/08 03:30:56;;;;;;;2.55;2.35;;;18.40;99.90;;;;;;5094998;28;20227;-86
2022/08/08 03:33:44;;;;;;;2.00;1.90;;;18.30;99.90;;;;;;5095034;28;20203;-86
2022/08/08 03:36:27;;;;;;;2.10;1.95;;;18.30;99.90;;;;;;5095533;28;20231;-87
2022/08/08 03:39:00;;;;;;;9.18;2.22;;;18.30;99.90;;;;;;5094716;28;20212;-87
2022/08/08 03:41:43;;;;;;;4.18;2.58;;;18.30;99.90;;;;;;5094701;28;20251;-87
2022/08/08 03:44:33;;;;;;;1.52;1.42;;;18.20;99.90;;;;;;5095020;28;20208;-88
2022/08/08 03:47:02;;;;;;;2.60;2.13;;;18.20;99.90;;;;;;5094519;28;20228;-87
2022/08/08 03:49:47;;;;;;;2.78;2.05;;;18.20;99.90;;;;;;5094543;28;20246;-87
2022/08/08 03:52:30;;;;;;;2.47;2.28;;;18.20;99.90;;;;;;5095277;28;20216;-87
2022/08/08 03:55:02;;;;;;;2.08;1.90;;;18.20;99.90;;;;;;5094999;28;20212;-87
2022/08/08 03:57:53;;;;;;;2.05;1.85;;;18.20;99.90;;;;;;5094778;28;20287;-87
2022/08/08 04:00:41;;;;;;;2.25;2.08;;;18.10;99.90;;;;;;5094208;28;20230;-87
2022/08/08 04:03:34;;;;;;;2.20;1.92;;;18.10;99.90;;;;;;5094407;28;20210;-87
2022/08/08 04:06:23;;;;;;;2.70;2.50;;;18.10;99.90;;;;;;5094232;28;20292;-87
2022/08/08 04:08:57;;;;;;;3.20;2.25;;;18.10;99.90;;;;;;5094374;28;20204;-87
2022/08/08 04:11:41;;;;;;;2.78;2.58;;;18.10;99.90;;;;;;5094017;28;20228;-87
2022/08/08 04:14:26;;;;;;;1.73;1.63;;;18.10;99.90;;;;;;5094514;28;20223;-87
2022/08/08 04:17:04;;;;;;;2.42;2.22;;;18.10;99.90;;;;;;5094140;28;20200;-87
2022/08/08 04:19:42;;;;;;;3.85;2.35;;;18.10;99.90;;;;;;5093894;28;20219;-87
2022/08/08 04:22:10;;;;;;;2.25;2.15;;;18.10;99.90;;;;;;5094000;28;20200;-87
2022/08/08 04:24:43;;;;;;;2.00;1.90;;;18.10;99.90;;;;;;5093867;28;20279;-89
2022/08/08 04:27:18;;;;;;;2.97;2.33;;;18.10;99.90;;;;;;5094106;28;20299;-88
2022/08/08 04:30:08;;;;;;;2.40;2.20;;;18.20;99.90;;;;;;5093389;28;20231;-87
2022/08/08 04:32:46;;;;;;;1.63;1.52;;;18.10;99.90;;;;;;5093835;28;20204;-87
2022/08/08 04:35:18;;;;;;;2.30;2.20;;;18.10;99.90;;;;;;5093764;28;20325;-87
2022/08/08 04:37:50;;;;;;;2.42;2.22;;;18.20;99.90;;;;;;5093901;28;20212;-87
2022/08/08 04:40:19;;;;;;;1.95;1.80;;;18.10;99.90;;;;;;5093878;28;20219;-87
2022/08/08 04:42:55;;;;;;;2.67;2.47;;;18.10;99.90;;;;;;5092860;28;20223;-87
2022/08/08 04:45:28;;;;;;;2.25;2.05;;;18.20;99.90;;;;;;5093736;28;20249;-87
2022/08/08 04:47:57;;;;;;;3.78;1.60;;;18.20;99.90;;;;;;5093172;28;20248;-87
2022/08/08 04:50:27;;;;;;;1.92;1.83;;;18.30;99.90;;;;;;5093390;28;20239;-87
2022/08/08 04:53:06;;;;;;;2.30;2.13;;;18.30;99.90;;;;;;5093515;28;20204;-88
2022/08/08 04:55:54;;;;;;;2.45;2.25;;;18.40;99.90;;;;;;5093184;28;20208;-89
2022/08/08 04:58:25;;;;;;;2.50;2.30;;;18.50;99.90;;;;;;5093334;28;20211;-88
2022/08/08 05:00:54;;;;;;;2.33;2.10;;;18.50;99.90;;;;;;5093296;28;20224;-88
2022/08/08 05:03:23;;;;;;;3.15;2.00;;;18.50;99.90;;;;;;5093227;28;20215;-87
2022/08/08 05:06:11;;;;;;;2.63;1.90;;;18.60;99.90;;;;;;5093571;28;20224;-87
2022/08/08 05:08:53;;;;;;;2.28;1.77;;;18.60;99.90;;;;;;5093074;28;20197;-86
2022/08/08 05:11:23;;;;;;;2.38;2.28;;;18.60;99.90;;;;;;5093123;28;20290;-87
2022/08/08 05:13:54;;;;;;;2.95;2.22;;;18.60;99.90;;;;;;5093132;28;20242;-87
2022/08/08 05:16:29;;;;;;;8.45;1.95;;;18.70;99.90;;;;;;5093048;28;20199;-88
2022/08/08 05:19:18;;;;;;;1.80;1.70;;;18.70;99.90;;;;;;5092908;28;20210;-87
2022/08/08 05:22:08;;;;;;;1.67;1.58;;;18.80;99.90;;;;;;5093034;28;20235;-88
2022/08/08 05:24:37;;;;;;;1.55;1.45;;;18.80;99.90;;;;;;5093334;28;20280;-88
2022/08/08 05:27:07;;;;;;;1.90;1.80;;;18.80;99.90;;;;;;5092799;28;20303;-87
2022/08/08 05:29:37;;;;;;;2.20;2.00;;;18.80;99.90;;;;;;5092737;28;20201;-87
2022/08/08 05:32:09;;;;;;;1.98;1.85;;;18.80;99.90;;;;;;5092975;28;20220;-87
2022/08/08 05:34:42;;;;;;;1.70;1.52;;;18.80;99.90;;;;;;5094953;28;20204;-87
2022/08/08 05:37:12;;;;;;;3.85;1.90;;;18.90;99.90;;;;;;5113221;28;20227;-87
2022/08/08 05:39:50;;;;;;;1.80;1.70;;;18.90;99.90;;;;;;5104140;28;20204;-87
2022/08/08 05:42:23;;;;;;;1.70;1.60;;;18.90;99.90;;;;;;5093025;28;20262;-87
2022/08/08 05:44:57;;;;;;;1.95;1.85;;;19.00;99.90;;;;;;5092804;28;20219;-87
2022/08/08 05:47:32;;;;;;;2.08;1.95;;;19.00;99.90;;;;;;5092557;28;20346;-88
2022/08/08 05:50:20;;;;;;;2.03;1.88;;;19.10;99.90;;;;;;5092596;28;20219;-88
2022/08/08 05:52:49;;;;;;;3.25;2.03;;;19.20;99.90;;;;;;5092688;28;20269;-88
2022/08/08 05:55:18;;;;;;;1.75;1.65;;;19.10;99.90;;;;;;5096413;28;20316;-87
2022/08/08 05:57:50;;;;;;;2.28;1.95;;;19.10;99.90;;;;;;5096640;28;20300;-88
2022/08/08 06:00:33;;;;;;;3.80;1.80;;;19.20;99.90;;;;;;5096052;28;20235;-87
2022/08/08 06:03:11;;;;;;;1.52;1.42;;;19.10;99.90;;;;;;5097039;28;20209;-88
2022/08/08 06:05:54;;;;;;;2.58;1.77;;;19.20;99.90;;;;;;5096963;28;20293;-88
2022/08/08 06:08:28;;;;;;;1.75;1.65;;;19.20;99.90;;;;;;5096195;28;20313;-88
2022/08/08 06:11:04;;;;;;;3.47;2.15;;;19.30;99.90;;;;;;5096718;28;20266;-88
2022/08/08 06:13:33;;;;;;;1.50;1.40;;;19.50;99.90;;;;;;5096238;28;20295;-88
2022/08/08 06:16:16;;;;;;;2.38;2.05;;;19.60;99.90;;;;;;5096810;28;20215;-88
2022/08/08 06:18:54;;;;;;;1.80;1.40;;;19.80;99.90;;;;;;5096328;28;20234;-87
2022/08/08 06:21:25;;;;;;;1.60;1.50;;;19.90;99.90;;;;;;5096172;28;20258;-88
2022/08/08 06:24:01;;;;;;;1.48;1.38;;;20.00;99.90;;;;;;5096634;28;20287;-87
2022/08/08 06:26:57;;;;;;;1.48;1.38;;;20.10;99.90;;;;;;5096405;28;20216;-88
2022/08/08 06:29:33;;;;;;;1.60;1.50;;;20.20;99.90;;;;;;5096401;28;20278;-88
2022/08/08 06:32:30;;;;;;;2.60;1.50;;;20.30;99.90;;;;;;5096136;28;20295;-88
2022/08/08 06:35:03;;;;;;;1.58;1.48;;;20.30;99.90;;;;;;5096283;28;20208;-88
2022/08/08 06:37:54;;;;;;;1.83;1.73;;;20.30;99.90;;;;;;5096099;28;20214;-88
2022/08/08 06:40:29;;;;;;;2.13;1.67;;;20.30;99.90;;;;;;5095966;28;20231;-88
2022/08/08 06:43:04;;;;;;;1.50;1.40;;;20.20;99.90;;;;;;5096110;28;20219;-88
2022/08/08 06:45:37;;;;;;;1.80;1.70;;;20.30;99.90;;;;;;5096372;28;20242;-88
2022/08/08 06:48:07;;;;;;;1.85;1.67;;;20.30;99.90;;;;;;5095736;28;20220;-88
2022/08/08 06:50:38;;;;;;;1.98;1.65;;;20.30;99.90;;;;;;5095630;28;20285;-88
2022/08/08 06:53:08;;;;;;;1.50;1.40;;;20.30;99.90;;;;;;5095521;28;20209;-88
2022/08/08 06:55:45;;;;;;;1.80;1.70;;;20.40;99.90;;;;;;5095803;28;20208;-88
2022/08/08 06:58:30;;;;;;;1.80;1.70;;;20.40;99.90;;;;;;5095889;28;20197;-87
2022/08/08 07:01:02;;;;;;;2.78;2.20;;;20.50;99.90;;;;;;5095820;28;20224;-87
2022/08/08 07:03:56;;;;;;;2.53;2.33;;;20.50;99.90;;;;;;5095707;28;20205;-87
2022/08/08 07:06:50;;;;;;;4.30;1.77;;;20.70;99.90;;;;;;5094841;28;20214;-87
2022/08/08 07:09:20;;;;;;;2.20;1.73;;;20.70;99.90;;;;;;5095454;28;20212;-87
2022/08/08 07:11:57;;;;;;;1.55;1.45;;;20.80;99.90;;;;;;5095168;28;20228;-90
2022/08/08 07:14:29;;;;;;;1.85;1.75;;;20.80;99.90;;;;;;5095640;28;20292;-88
2022/08/08 07:17:03;;;;;;;1.90;1.73;;;20.90;99.90;;;;;;5095336;28;20206;-87
2022/08/08 07:19:43;;;;;;;2.05;1.88;;;20.80;99.90;;;;;;5094493;28;20208;-87
2022/08/08 07:22:22;;;;;;;2.53;2.00;;;20.80;99.90;;;;;;5094466;28;20196;-85
2022/08/08 07:25:09;;;;;;;2.17;1.73;;;20.60;99.90;;;;;;5094074;28;20204;-87
2022/08/08 07:27:51;;;;;;;1.50;1.40;;;20.50;99.90;;;;;;5094928;28;20212;-87
2022/08/08 07:30:30;;;;;;;2.00;1.90;;;20.30;99.90;;;;;;5095661;28;20220;-87
2022/08/08 07:33:00;;;;;;;1.65;1.55;;;20.30;99.90;;;;;;5095132;28;20192;-88
2022/08/08 07:35:31;;;;;;;2.33;1.80;;;20.10;99.90;;;;;;5095523;28;20200;-88
2022/08/08 07:38:03;;;;;;;2.00;1.80;;;20.00;99.90;;;;;;5095902;28;20212;-87
2022/08/08 07:40:48;;;;;;;2.65;2.30;;;19.90;99.90;;;;;;5095011;28;20301;-87
2022/08/08 07:43:20;;;;;;;1.63;1.52;;;19.80;99.90;;;;;;5094551;28;20201;-87
2022/08/08 07:46:05;;;;;;;2.70;1.98;;;19.60;99.90;;;;;;5094968;28;20212;-86
2022/08/08 07:48:53;;;;;;;1.80;1.70;;;19.60;99.90;;;;;;5094182;28;20224;-88
2022/08/08 07:51:24;;;;;;;1.98;1.80;;;19.40;99.90;;;;;;5094515;28;20247;-87
2022/08/08 07:54:22;;;;;;;1.80;1.70;;;19.10;99.90;;;;;;5095008;28;20207;-87
2022/08/08 07:57:01;;;;;;;2.17;2.03;;;18.80;99.90;;;;;;5094489;28;20217;-88
2022/08/08 07:59:35;;;;;;;2.40;2.00;;;18.60;99.90;;;;;;5094362;28;20208;-88
2022/08/08 08:02:06;;;;;;;2.10;2.00;;;18.40;99.90;;;;;;5094312;28;20258;-88
2022/08/08 08:05:01;;;;;;;2.67;2.08;;;18.30;99.90;;;;;;5075338;28;20197;-88
2022/08/08 08:07:33;;;;;;;3.38;2.00;;;18.20;99.90;;;;;;5075448;28;20205;-88
2022/08/08 08:10:10;;;;;;;2.65;2.45;;;18.10;99.90;;;;;;5074628;28;20220;-88
2022/08/08 08:12:45;;;;;;;4.25;2.75;;;18.00;99.90;;;;;;5074571;28;20201;-83
2022/08/08 08:15:17;;;;;;;1.67;1.58;;;17.90;99.90;;;;;;5074739;28;20247;-84
2022/08/08 08:17:50;;;;;;;2.92;2.58;;;17.80;99.90;;;;;;5073335;28;20200;-83
2022/08/08 08:20:27;;;;;;;3.00;2.53;;;17.70;99.90;;;;;;5090325;28;20224;-84
2022/08/08 08:22:59;;;;;;;2.58;2.35;;;17.70;99.90;;;;;;5094181;28;20196;-84
2022/08/08 08:25:27;;;;;;;2.72;2.15;;;17.60;99.90;;;;;;5094656;28;20287;-83
2022/08/08 08:28:13;;;;;;;2.08;1.85;;;17.60;99.90;;;;;;5094390;28;20221;-83
2022/08/08 08:30:51;;;;;;;1.85;1.75;;;17.60;99.90;;;;;;5093736;28;20224;-83
2022/08/08 08:33:20;;;;;;;3.63;2.13;;;17.70;99.90;;;;;;5094867;28;20196;-83
2022/08/08 08:35:50;;;;;;;1.67;1.58;;;17.70;99.90;;;;;;5094307;28;20201;-83
2022/08/08 08:38:40;;;;;;;2.35;2.15;;;17.70;99.90;;;;;;5093964;28;20200;-83
2022/08/08 08:41:18;;;;;;;2.40;2.20;;;17.80;99.90;;;;;;5093687;28;20311;-83
2022/08/08 08:43:51;;;;;;;2.58;2.38;;;17.90;99.90;;;;;;5094386;28;20193;-84
2022/08/08 08:46:40;;;;;;;2.30;2.15;;;17.90;99.90;;;;;;5094349;28;20207;-83
2022/08/08 08:49:15;;;;;;;2.38;2.17;;;17.90;99.90;;;;;;5093311;28;20212;-83
2022/08/08 08:51:44;;;;;;;1.98;1.88;;;18.00;99.90;;;;;;5093421;28;20220;-83
2022/08/08 08:54:22;;;;;;;2.88;2.13;;;18.00;99.90;;;;;;5094133;28;20210;-83
2022/08/08 08:56:53;;;;;;;2.50;2.15;;;18.00;99.90;;;;;;5093976;28;20203;-83
2022/08/08 08:59:24;;;;;;;1.52;1.42;;;17.90;99.90;;;;;;5093607;28;20242;-84
2022/08/08 09:02:19;;;;;;;2.47;1.83;;;17.90;99.90;;;;;;5093224;28;20203;-84
2022/08/08 09:04:51;;;;;;;4.57;2.88;;;17.90;99.90;;;;;;5093879;28;20202;-84
2022/08/08 09:07:23;;;;;;;2.33;1.85;;;17.90;99.90;;;;;;5093946;28;20208;-85
2022/08/08 09:10:10;;;;;;;2.63;2.08;;;17.90;99.90;;;;;;5093265;28;20224;-84
2022/08/08 09:12:46;;;;;;;2.25;2.05;;;17.80;99.90;;;;;;5093327;28;20200;-87
2022/08/08 09:15:17;;;;;;;2.78;2.58;;;17.60;99.90;;;;;;5093462;28;20200;-86
2022/08/08 09:18:08;;;;;;;2.65;2.33;;;17.50;99.90;;;;;;5092938;28;20290;-86
2022/08/08 09:20:40;;;;;;;2.05;1.95;;;17.40;99.90;;;;;;5093579;28;20228;-86
2022/08/08 09:23:30;;;;;;;2.28;2.00;;;17.20;99.90;;;;;;5093758;28;20259;-87
2022/08/08 09:26:14;;;;;;;1.80;1.70;;;17.10;99.90;;;;;;5093512;28;20220;-87
2022/08/08 09:28:44;;;;;;;2.60;2.05;;;17.00;99.90;;;;;;5093346;28;20221;-85
2022/08/08 09:31:15;;;;;;;4.63;2.13;;;17.00;99.90;;;;;;5093531;28;20291;-85
2022/08/08 09:33:46;;;;;;;1.90;1.80;;;16.90;99.90;;;;;;5093615;28;20253;-86
2022/08/08 09:36:38;;;;;;;2.05;1.95;;;16.90;99.90;;;;;;5095161;28;20199;-86
2022/08/08 09:39:21;;;;;;;2.40;2.20;;;17.00;99.90;;;;;;5093366;28;20208;-86
2022/08/08 09:42:01;;;;;;;2.72;2.10;;;17.00;99.90;;;;;;5092856;28;20220;-86
2022/08/08 09:45:03;;;;;;;2.40;2.13;;;17.10;99.90;;;;;;5093241;28;20199;-87
2022/08/08 09:47:49;;;;;;;1.80;1.70;;;17.10;99.90;;;;;;5092943;28;20212;-86
2022/08/08 09:50:37;;;;;;;2.15;1.95;;;17.20;99.90;;;;;;5083666;28;20224;-86
2022/08/08 09:53:20;;;;;;;5.55;2.30;;;17.30;99.90;;;;;;5092838;28;20233;-87
2022/08/08 09:56:21;;;;;;;2.38;2.17;;;17.30;99.90;;;;;;5093279;28;20197;-86
2022/08/08 09:59:02;;;;;;;2.03;1.88;;;17.40;99.90;;;;;;5092062;28;20197;-86
2022/08/08 10:01:53;;;;;;;1.75;1.65;;;17.50;99.90;;;;;;5092622;28;20216;-86
2022/08/08 10:04:33;;;;;;;2.75;2.30;;;17.50;99.90;;;;;;5093186;28;20212;-87
2022/08/08 10:07:19;;;;;;;4.15;2.22;;;17.60;99.90;;;;;;5087188;28;20205;-89
2022/08/08 10:09:52;;;;;;;2.85;2.30;;;17.70;99.90;;;;;;5092729;28;20298;-88
2022/08/08 10:12:37;;;;;;;3.55;2.22;;;17.70;99.90;;;;;;5093038;28;20200;-86
2022/08/08 10:15:28;;;;;;;2.58;2.38;;;17.60;99.90;;;;;;5092969;28;20196;-86
2022/08/08 10:17:57;;;;;;;2.30;1.92;;;17.70;99.90;;;;;;5093241;28;20204;-87
2022/08/08 10:20:46;;;;;;;2.70;2.35;;;17.60;99.90;;;;;;5092540;28;20216;-87
2022/08/08 10:23:41;;;;;;;2.92;2.50;;;17.50;99.90;;;;;;5092843;28;20214;-87
2022/08/08 10:26:19;;;;;;;3.85;2.85;;;17.40;99.90;;;;;;5092590;28;20211;-87
2022/08/08 10:29:03;;;;;;;2.83;2.63;;;17.40;99.90;;;;;;5092361;28;20307;-85
2022/08/08 10:34:23;;;;;;;3.05;2.85;;;17.30;99.90;;;;;;5092409;28;20205;-87
2022/08/08 10:36:57;;;;;;;2.75;2.55;;;17.20;99.90;;;;;;5092511;28;20213;-87
2022/08/08 10:39:29;;;;;;;3.72;3.35;;;17.20;99.90;;;;;;5092124;28;20315;-88
2022/08/08 10:42:20;;;;;;;4.40;3.33;;;17.20;99.90;;;;;;5095648;28;20207;-86
2022/08/08 10:45:01;;;;;;;3.92;3.63;;;17.20;99.90;;;;;;5095702;28;20207;-87
2022/08/08 10:47:38;;;;;;;3.97;3.58;;;17.20;99.90;;;;;;5096212;28;20204;-87
2022/08/08 10:50:11;;;;;;;3.80;3.50;;;17.20;99.90;;;;;;5095259;28;20292;-86
2022/08/08 10:52:43;;;;;;;3.83;3.53;;;17.20;99.90;;;;;;5096060;28;20262;-86
2022/08/08 10:55:14;;;;;;;3.78;3.47;;;17.20;99.90;;;;;;5095818;28;20211;-86
2022/08/08 10:58:05;;;;;;;4.18;3.88;;;17.20;99.90;;;;;;5095914;28;20204;-88
2022/08/08 11:00:42;;;;;;;4.03;3.72;;;17.20;99.90;;;;;;5095462;28;20216;-85
2022/08/08 11:04:25;;;;;;;4.50;4.10;;;17.20;99.90;;;;;;5094939;28;20254;-88
2022/08/08 11:07:07;;;;;;;4.63;4.32;;;17.20;99.90;;;;;;5095971;28;20220;-86
2022/08/08 11:09:55;;;;;;;3.65;3.35;;;17.10;99.90;;;;;;5095121;28;20281;-86
2022/08/08 11:12:24;;;;;;;4.65;4.25;;;17.10;99.90;;;;;;5095107;28;20227;-86
2022/08/08 11:14:58;;;;;;;4.40;4.07;;;17.00;99.90;;;;;;5095699;28;20219;-86
2022/08/08 11:17:31;;;;;;;4.10;3.80;;;17.00;99.90;;;;;;5095685;28;20208;-86
2022/08/08 11:20:23;;;;;;;4.88;4.50;;;17.00;99.90;;;;;;5094941;28;20237;-86
2022/08/08 11:22:56;;;;;;;4.35;3.92;;;17.00;99.90;;;;;;5095340;28;20207;-86
2022/08/08 11:25:57;;;;;;;4.78;4.32;;;17.00;99.90;;;;;;5095522;28;20248;-86
2022/08/08 11:28:53;;;;;;;4.38;4.07;;;17.00;99.90;;;;;;5095148;28;20282;-87
2022/08/08 11:31:26;;;;;;;3.95;3.58;;;17.00;99.90;;;;;;5094895;28;20226;-87
2022/08/08 11:34:02;;;;;;;5.07;4.18;;;17.00;99.90;;;;;;5095225;28;20204;-86
2022/08/08 11:36:53;;;;;;;4.00;3.70;;;17.00;99.90;;;;;;5095177;28;20215;-86
2022/08/08 11:39:34;;;;;;;3.95;3.65;;;17.00;99.90;;;;;;5094829;28;20200;-86
2022/08/08 11:42:04;;;;;;;3.63;3.33;;;17.00;99.90;;;;;;5094705;28;20224;-86
2022/08/08 11:44:42;;;;;;;4.43;4.13;;;17.00;99.90;;;;;;5095082;28;20208;-86
2022/08/08 11:47:12;;;;;;;4.38;3.95;;;17.00;99.90;;;;;;5095352;28;20215;-86
2022/08/08 11:49:56;;;;;;;10.90;4.18;;;17.00;99.90;;;;;;5094277;28;20224;-85
2022/08/08 11:52:28;;;;;;;4.38;4.07;;;17.00;99.90;;;;;;5094559;28;20223;-85
2022/08/08 11:54:59;;;;;;;5.65;4.55;;;17.00;99.90;;;;;;5094258;28;20207;-86
2022/08/08 11:57:34;;;;;;;4.43;4.03;;;17.00;99.90;;;;;;5094441;28;20214;-86
2022/08/08 12:00:44;;;;;;;4.38;3.88;;;17.00;99.90;;;;;;5094003;28;20261;-86
2022/08/08 12:04:15;;;;;;;3.22;3.03;;;17.00;99.90;;;;;;5087646;28;20196;-86
2022/08/08 12:07:30;;;;;;;3.63;3.35;;;17.10;99.90;;;;;;5092731;28;20200;-85
2022/08/08 12:14:28;;;;;;;4.38;3.78;;;17.10;99.90;;;;;;5085207;28;20207;-86
2022/08/08 12:17:07;;;;;;;3.60;3.30;;;17.20;99.90;;;;;;5094077;28;20283;-87
2022/08/08 12:19:59;;;;;;;2.92;2.72;;;17.20;99.90;;;;;;5093629;28;20210;-86
2022/08/08 12:22:38;;;;;;;4.43;4.03;;;17.20;99.90;;;;;;5093941;28;20295;-85
2022/08/08 12:25:26;;;;;;;5.68;4.93;;;17.40;99.90;;;;;;5093969;28;20211;-88
2022/08/08 12:28:10;;;;;;;4.72;4.18;;;17.50;99.90;;;;;;5093823;28;20200;-86
2022/08/08 12:30:44;;;;;;;4.80;3.60;;;17.50;99.90;;;;;;5093065;28;20224;-88
2022/08/08 12:33:19;;;;;;;4.63;4.15;;;17.50;99.90;;;;;;5093311;28;20208;-88
2022/08/08 12:38:59;;;;;;;4.32;3.92;;;17.60;99.90;;;;;;5091024;28;20220;-87
2022/08/08 12:41:36;;;;;;;4.57;3.88;;;17.60;99.90;;;;;;5094221;28;20222;-86
2022/08/08 12:44:27;;;;;;;8.20;4.05;;;17.60;99.90;;;;;;5093159;28;20197;-87
2022/08/08 12:47:00;;;;;;;4.82;4.32;;;17.60;99.90;;;;;;5093318;28;20287;-86
2022/08/08 12:49:48;;;;;;;4.25;3.70;;;17.60;99.90;;;;;;5093070;28;20200;-86
2022/08/08 12:52:21;;;;;;;3.85;2.85;;;17.70;99.90;;;;;;5095806;28;20216;-86
2022/08/08 12:55:05;;;;;;;2.88;2.67;;;17.70;99.90;;;;;;5093261;28;20249;-87
2022/08/08 12:57:41;;;;;;;3.20;2.97;;;17.70;99.90;;;;;;5093083;28;20281;-86
2022/08/08 13:00:28;;;;;;;4.50;3.45;;;17.70;99.90;;;;;;5092890;28;20307;-86
2022/08/08 13:03:06;;;;;;;3.13;2.90;;;17.80;99.90;;;;;;5092633;28;20288;-85
2022/08/08 13:05:36;;;;;;;4.10;3.70;;;17.80;99.90;;;;;;5092910;28;20292;-85
2022/08/08 13:08:24;;;;;;;4.00;3.60;;;17.80;99.90;;;;;;5092023;28;20301;-86
2022/08/08 13:11:07;;;;;;;3.95;3.35;;;17.90;99.90;;;;;;5092906;28;20230;-85
2022/08/08 13:13:37;;;;;;;3.47;3.17;;;17.90;99.90;;;;;;5092737;28;20207;-86
2022/08/08 13:16:19;;;;;;;4.25;2.88;;;17.90;99.90;;;;;;5092718;28;20197;-85
2022/08/08 13:18:48;;;;;;;3.80;3.50;;;17.90;99.90;;;;;;5093519;28;20271;-86
2022/08/08 13:21:28;;;;;;;3.85;3.42;;;17.90;99.90;;;;;;5092820;28;20224;-86
2022/08/08 13:24:16;;;;;;;4.70;3.10;;;18.00;99.90;;;;;;5092600;28;20220;-86
2022/08/08 13:27:08;;;;;;;3.95;3.58;;;18.00;99.90;;;;;;5092693;28;20200;-85
2022/08/08 13:29:51;;;;;;;3.58;3.15;;;18.00;99.90;;;;;;5092645;28;20272;-87
2022/08/08 13:32:23;;;;;;;3.22;2.92;;;18.00;99.90;;;;;;5092204;28;20224;-86
2022/08/08 13:34:54;;;;;;;2.70;2.50;;;18.00;99.90;;;;;;5092872;28;20208;-86
2022/08/08 13:37:23;;;;;;;2.17;2.05;;;17.90;99.90;;;;;;5092519;28;20220;-86
2022/08/08 13:40:12;;;;;;;4.85;3.13;;;17.80;99.90;;;;;;5092222;28;20224;-86
2022/08/08 13:42:55;;;;;;;2.72;2.47;;;17.80;99.90;;;;;;5092289;28;20226;-85
2022/08/08 13:45:25;;;;;;;2.92;2.67;;;17.80;99.90;;;;;;5092606;28;20212;-86
2022/08/08 13:47:57;;;;;;;3.78;3.28;;;17.80;99.90;;;;;;5092527;28;20216;-85
2022/08/08 13:50:26;;;;;;;2.97;2.78;;;17.90;99.90;;;;;;5091789;28;20306;-85
2022/08/08 13:53:10;;;;;;;2.85;2.47;;;17.90;99.90;;;;;;5092332;28;20204;-87
2022/08/08 13:55:59;;;;;;;3.08;2.78;;;18.00;99.90;;;;;;5092170;28;20231;-86
2022/08/08 13:58:30;;;;;;;2.78;2.40;;;18.00;99.90;;;;;;5092181;28;20208;-86
2022/08/08 14:01:12;;;;;;;2.92;2.67;;;18.00;99.90;;;;;;5092516;28;20221;-86
2022/08/08 14:03:53;;;;;;;3.97;3.42;;;18.00;99.90;;;;;;5092292;28;20200;-87
2022/08/08 14:06:23;;;;;;;4.82;3.13;;;18.10;99.90;;;;;;5092066;28;20211;-86
2022/08/08 14:09:01;;;;;;;4.28;2.38;;;18.20;99.90;;;;;;5092128;28;20223;-86
2022/08/08 14:11:50;;;;;;;2.42;2.28;;;18.10;99.90;;;;;;5091951;28;20235;-86
2022/08/08 14:14:22;;;;;;;2.45;2.25;;;18.10;99.90;;;;;;5092559;28;20215;-86
2022/08/08 14:17:02;;;;;;;2.75;2.53;;;18.10;99.90;;;;;;5096501;28;20275;-86
2022/08/08 14:19:37;;;;;;;3.28;3.05;;;18.10;99.90;;;;;;5095904;28;20260;-86
2022/08/08 14:22:32;;;;;;;3.13;2.90;;;18.00;99.90;;;;;;5095938;28;20240;-86
2022/08/08 14:25:11;;;;;;;3.55;3.20;;;18.00;99.90;;;;;;5096568;28;20212;-86